LFBI/PIS METAR and TAF weather

Enter ICAO airport designator
Station Type Date Time Source
LFBI METAR 2019/12/08 01:00 UTC NOAA

LFBI 080100Z AUTO 21008KT 9999 BKN007 OVC011 11/11 Q1018 TEMPO 4000 -RA


Station Type Date Time Source
LFBI Decoded METAR 2019/12/08 01:00 UTC NOAA

Poitiers, France (LFBI) 46-35N 000-19E 120M
Dec 07, 2019 - 08:00 PM EST / 2019.12.08 0100 UTC
Wind: from the SSW (210 degrees) at 9 MPH (8 KT):0
Visibility: greater than 7 mile(s):0
Sky conditions: overcast
Temperature: 51 F (11 C)
Dew Point: 51 F (11 C)
Relative Humidity: 100%
Pressure (altimeter): 30.06 in. Hg (1018 hPa)
ob: LFBI 080100Z AUTO 21008KT 9999 BKN007 OVC011 11/11 Q1018 TEMPO 4000 -RA
cycle: 1

Station Type Date Time Source
LFBI TAF 2019/12/07 18:21 UTC NOAA

TAF LFBI 071700Z 0718/0818 21010KT 8000 SCT008 BKN020
TEMPO 0718/0804 1500 DZ OVC003
BECMG 0804/0806 23015KT BKN010
BECMG 0806/0808 23015G25KT 4000 -RA
TEMPO 0808/0812 2000 RADZ OVC004
BECMG 0812/0814 27010KT SCT020

Example: see airport list